sensor_id;sensor_type;location;lat;lon;timestamp;pressure;altitude;pressure_sealevel;temperature;humidity
76448;BME280;65284;51.040;13.722;2023-07-31T00:01:53;99597.25;;;16.46;72.17
76448;BME280;65284;51.040;13.722;2023-07-31T00:04:20;99595.81;;;16.44;71.32
76448;BME280;65284;51.040;13.722;2023-07-31T00:06:46;99588.81;;;16.43;71.25
76448;BME280;65284;51.040;13.722;2023-07-31T00:09:13;99584.50;;;16.42;71.64
76448;BME280;65284;51.040;13.722;2023-07-31T00:11:39;99591.09;;;16.46;71.21
76448;BME280;65284;51.040;13.722;2023-07-31T00:14:05;99593.56;;;16.41;71.00
76448;BME280;65284;51.040;13.722;2023-07-31T00:16:32;99588.00;;;16.42;70.77
76448;BME280;65284;51.040;13.722;2023-07-31T00:18:58;99584.50;;;16.42;70.58
76448;BME280;65284;51.040;13.722;2023-07-31T00:21:25;99586.34;;;16.41;70.56
76448;BME280;65284;51.040;13.722;2023-07-31T00:23:51;99594.19;;;16.43;70.30
76448;BME280;65284;51.040;13.722;2023-07-31T00:26:18;99590.25;;;16.38;70.11
76448;BME280;65284;51.040;13.722;2023-07-31T00:28:44;99591.91;;;16.40;70.38
76448;BME280;65284;51.040;13.722;2023-07-31T00:31:11;99578.31;;;16.34;70.90
76448;BME280;65284;51.040;13.722;2023-07-31T00:33:37;99578.47;;;16.53;70.96
76448;BME280;65284;51.040;13.722;2023-07-31T00:36:04;99577.47;;;16.41;70.07
76448;BME280;65284;51.040;13.722;2023-07-31T00:38:30;99576.03;;;16.45;69.40
76448;BME280;65284;51.040;13.722;2023-07-31T00:40:57;99566.56;;;16.42;68.75
76448;BME280;65284;51.040;13.722;2023-07-31T00:43:24;99572.75;;;16.43;69.76
76448;BME280;65284;51.040;13.722;2023-07-31T00:45:51;99567.56;;;16.48;70.17
76448;BME280;65284;51.040;13.722;2023-07-31T00:48:17;99564.69;;;16.43;70.30
76448;BME280;65284;51.040;13.722;2023-07-31T00:50:44;99567.38;;;16.43;69.64
76448;BME280;65284;51.040;13.722;2023-07-31T00:53:10;99567.56;;;16.41;70.20
76448;BME280;65284;51.040;13.722;2023-07-31T00:55:37;99570.25;;;16.41;70.51
76448;BME280;65284;51.040;13.722;2023-07-31T00:58:03;99563.06;;;16.42;70.81
76448;BME280;65284;51.040;13.722;2023-07-31T01:00:30;99569.84;;;16.37;70.26
76448;BME280;65284;51.040;13.722;2023-07-31T01:02:56;99558.09;;;16.38;69.74
76448;BME280;65284;51.040;13.722;2023-07-31T01:05:36;99566.56;;;16.35;69.89
76448;BME280;65284;51.040;13.722;2023-07-31T01:08:18;99565.97;;;16.33;69.72
76448;BME280;65284;51.040;13.722;2023-07-31T01:10:56;99559.56;;;16.34;69.61
76448;BME280;65284;51.040;13.722;2023-07-31T01:13:25;99561.03;;;16.30;70.83
76448;BME280;65284;51.040;13.722;2023-07-31T01:15:51;99561.03;;;16.30;70.17
76448;BME280;65284;51.040;13.722;2023-07-31T01:18:18;99561.03;;;16.30;70.48
76448;BME280;65284;51.040;13.722;2023-07-31T01:20:47;99549.47;;;16.23;71.06
76448;BME280;65284;51.040;13.722;2023-07-31T01:24:01;99554.81;;;16.23;71.21
76448;BME280;65284;51.040;13.722;2023-07-31T01:26:36;99547.03;;;16.15;70.65
76448;BME280;65284;51.040;13.722;2023-07-31T01:31:44;99554.03;;;16.16;70.17
76448;BME280;65284;51.040;13.722;2023-07-31T01:34:16;99550.94;;;16.19;71.26
76448;BME280;65284;51.040;13.722;2023-07-31T01:36:43;99552.97;;;16.17;69.92
76448;BME280;65284;51.040;13.722;2023-07-31T01:39:10;99547.84;;;16.22;69.88
76448;BME280;65284;51.040;13.722;2023-07-31T01:41:36;99547.63;;;16.17;70.39
76448;BME280;65284;51.040;13.722;2023-07-31T01:44:03;99550.28;;;16.24;70.61
76448;BME280;65284;51.040;13.722;2023-07-31T01:46:29;99539.78;;;16.22;70.22
76448;BME280;65284;51.040;13.722;2023-07-31T01:48:56;99531.78;;;16.15;71.22
76448;BME280;65284;51.040;13.722;2023-07-31T01:51:23;99540.22;;;16.19;70.81
76448;BME280;65284;51.040;13.722;2023-07-31T01:53:49;99532.59;;;16.16;70.00
76448;BME280;65284;51.040;13.722;2023-07-31T01:56:16;99544.72;;;16.25;69.98
76448;BME280;65284;51.040;13.722;2023-07-31T01:58:42;99526.00;;;16.19;69.73
76448;BME280;65284;51.040;13.722;2023-07-31T02:01:08;99537.13;;;16.22;69.85
76448;BME280;65284;51.040;13.722;2023-07-31T02:03:35;99530.97;;;16.15;70.25
76448;BME280;65284;51.040;13.722;2023-07-31T02:06:02;99529.28;;;16.14;70.66
76448;BME280;65284;51.040;13.722;2023-07-31T02:08:28;99523.09;;;16.20;70.21
76448;BME280;65284;51.040;13.722;2023-07-31T02:10:55;99528.44;;;16.20;70.50
76448;BME280;65284;51.040;13.722;2023-07-31T02:13:21;99527.63;;;16.20;70.57
76448;BME280;65284;51.040;13.722;2023-07-31T02:15:48;99522.91;;;16.22;69.44
76448;BME280;65284;51.040;13.722;2023-07-31T02:18:14;99521.00;;;16.29;69.99
76448;BME280;65284;51.040;13.722;2023-07-31T02:20:40;99516.69;;;16.28;69.75
76448;BME280;65284;51.040;13.722;2023-07-31T02:23:07;99524.75;;;16.28;69.53
76448;BME280;65284;51.040;13.722;2023-07-31T02:25:33;99514.84;;;16.28;69.52
76448;BME280;65284;51.040;13.722;2023-07-31T02:28:00;99521.41;;;16.32;69.26
76448;BME280;65284;51.040;13.722;2023-07-31T02:30:26;99519.34;;;16.34;69.35
76448;BME280;65284;51.040;13.722;2023-07-31T02:32:53;99520.16;;;16.35;69.85
76448;BME280;65284;51.040;13.722;2023-07-31T02:35:19;99518.09;;;16.44;69.12
76448;BME280;65284;51.040;13.722;2023-07-31T02:37:46;99518.31;;;16.42;68.98
76448;BME280;65284;51.040;13.722;2023-07-31T02:40:13;99517.28;;;16.36;68.83
76448;BME280;65284;51.040;13.722;2023-07-31T02:42:39;99523.66;;;16.49;68.39
76448;BME280;65284;51.040;13.722;2023-07-31T02:45:06;99525.94;;;16.38;67.87
76448;BME280;65284;51.040;13.722;2023-07-31T02:47:33;99517.72;;;16.33;69.00
76448;BME280;65284;51.040;13.722;2023-07-31T02:49:59;99519.56;;;16.33;68.58
76448;BME280;65284;51.040;13.722;2023-07-31T02:52:26;99518.94;;;16.37;68.71
76448;BME280;65284;51.040;13.722;2023-07-31T02:54:52;99519.78;;;16.31;69.72
76448;BME280;65284;51.040;13.722;2023-07-31T02:57:19;99516.06;;;16.32;69.99
76448;BME280;65284;51.040;13.722;2023-07-31T02:59:45;99514.19;;;16.40;68.45
76448;BME280;65284;51.040;13.722;2023-07-31T03:02:11;99514.41;;;16.31;68.97
76448;BME280;65284;51.040;13.722;2023-07-31T03:04:39;99517.53;;;16.28;68.63
76448;BME280;65284;51.040;13.722;2023-07-31T03:07:06;99520.81;;;16.30;68.96
76448;BME280;65284;51.040;13.722;2023-07-31T03:09:32;99528.47;;;16.27;69.49
76448;BME280;65284;51.040;13.722;2023-07-31T03:11:59;99522.47;;;16.31;69.25
76448;BME280;65284;51.040;13.722;2023-07-31T03:14:25;99523.50;;;16.30;69.17
76448;BME280;65284;51.040;13.722;2023-07-31T03:16:53;99527.19;;;16.29;69.68
76448;BME280;65284;51.040;13.722;2023-07-31T03:19:19;99522.66;;;16.36;68.79
76448;BME280;65284;51.040;13.722;2023-07-31T03:21:46;99519.34;;;16.34;69.36
76448;BME280;65284;51.040;13.722;2023-07-31T03:24:12;99531.34;;;16.25;69.95
76448;BME280;65284;51.040;13.722;2023-07-31T03:26:39;99529.50;;;16.19;69.73
76448;BME280;65284;51.040;13.722;2023-07-31T03:29:08;99532.56;;;16.23;69.69
76448;BME280;65284;51.040;13.722;2023-07-31T03:31:34;99538.75;;;16.23;71.10
76448;BME280;65284;51.040;13.722;2023-07-31T03:34:01;99543.28;;;16.29;71.33
76448;BME280;65284;51.040;13.722;2023-07-31T03:36:27;99540.41;;;16.24;71.90
76448;BME280;65284;51.040;13.722;2023-07-31T03:38:54;99540.84;;;16.21;73.14
76448;BME280;65284;51.040;13.722;2023-07-31T03:41:20;99549.88;;;16.20;74.70
76448;BME280;65284;51.040;13.722;2023-07-31T03:43:50;99549.47;;;16.23;76.33
76448;BME280;65284;51.040;13.722;2023-07-31T03:46:18;99535.66;;;16.20;78.70
76448;BME280;65284;51.040;13.722;2023-07-31T03:48:44;99545.38;;;16.07;79.89
76448;BME280;65284;51.040;13.722;2023-07-31T03:51:11;99546.63;;;16.05;80.51
76448;BME280;65284;51.040;13.722;2023-07-31T03:53:37;99533.00;;;16.00;80.66
76448;BME280;65284;51.040;13.722;2023-07-31T03:56:04;99535.09;;;16.04;81.63
76448;BME280;65284;51.040;13.722;2023-07-31T03:58:30;99529.13;;;15.96;81.63
76448;BME280;65284;51.040;13.722;2023-07-31T04:00:57;99527.88;;;15.98;82.07
76448;BME280;65284;51.040;13.722;2023-07-31T04:03:23;99524.78;;;16.01;82.45
76448;BME280;65284;51.040;13.722;2023-07-31T04:05:50;99526.03;;;15.92;82.42
76448;BME280;65284;51.040;13.722;2023-07-31T04:08:16;99518.59;;;15.87;82.99
76448;BME280;65284;51.040;13.722;2023-07-31T04:10:43;99523.75;;;15.82;83.44
76448;BME280;65284;51.040;13.722;2023-07-31T04:13:09;99512.44;;;15.80;84.84
76448;BME280;65284;51.040;13.722;2023-07-31T04:15:36;99516.16;;;15.73;85.49
76448;BME280;65284;51.040;13.722;2023-07-31T04:18:02;99519.84;;;15.65;86.45
76448;BME280;65284;51.040;13.722;2023-07-31T04:20:29;99511.19;;;15.63;87.30
76448;BME280;65284;51.040;13.722;2023-07-31T04:22:55;99498.00;;;15.55;88.35
76448;BME280;65284;51.040;13.722;2023-07-31T04:25:22;99511.16;;;15.50;88.82
76448;BME280;65284;51.040;13.722;2023-07-31T04:27:48;99503.34;;;15.48;89.96
76448;BME280;65284;51.040;13.722;2023-07-31T04:30:15;99501.91;;;15.52;89.94
76448;BME280;65284;51.040;13.722;2023-07-31T04:32:41;99496.38;;;15.47;91.11
76448;BME280;65284;51.040;13.722;2023-07-31T04:35:08;99493.66;;;15.40;90.77
76448;BME280;65284;51.040;13.722;2023-07-31T04:37:34;99494.69;;;15.46;91.02
76448;BME280;65284;51.040;13.722;2023-07-31T04:40:01;99486.47;;;15.34;91.59
76448;BME280;65284;51.040;13.722;2023-07-31T04:42:27;99484.41;;;15.30;91.66
76448;BME280;65284;51.040;13.722;2023-07-31T04:44:53;99485.63;;;15.27;92.58
76448;BME280;65284;51.040;13.722;2023-07-31T04:47:20;99479.28;;;15.41;92.69
76448;BME280;65284;51.040;13.722;2023-07-31T04:49:47;99478.84;;;15.31;92.43
76448;BME280;65284;51.040;13.722;2023-07-31T04:52:13;99477.38;;;15.22;92.95
76448;BME280;65284;51.040;13.722;2023-07-31T04:54:39;99473.72;;;15.36;92.44
76448;BME280;65284;51.040;13.722;2023-07-31T04:57:06;99479.25;;;15.35;92.50
76448;BME280;65284;51.040;13.722;2023-07-31T04:59:33;99472.47;;;15.32;91.98
76448;BME280;65284;51.040;13.722;2023-07-31T05:01:59;99471.66;;;15.38;91.69
76448;BME280;65284;51.040;13.722;2023-07-31T05:04:26;99486.25;;;15.36;91.74
76448;BME280;65284;51.040;13.722;2023-07-31T05:06:52;99480.28;;;15.40;91.80
76448;BME280;65284;51.040;13.722;2023-07-31T05:09:19;99477.81;;;15.45;91.43
76448;BME280;65284;51.040;13.722;2023-07-31T05:11:45;99472.06;;;15.48;90.94
76448;BME280;65284;51.040;13.722;2023-07-31T05:14:12;99470.41;;;15.47;91.07
76448;BME280;65284;51.040;13.722;2023-07-31T05:16:38;99470.59;;;15.53;91.29
76448;BME280;65284;51.040;13.722;2023-07-31T05:19:05;99471.84;;;15.57;90.59
76448;BME280;65284;51.040;13.722;2023-07-31T05:21:32;99469.81;;;15.59;90.36
76448;BME280;65284;51.040;13.722;2023-07-31T05:23:58;99471.44;;;15.60;90.74
76448;BME280;65284;51.040;13.722;2023-07-31T05:26:25;99459.91;;;15.59;90.54
76448;BME280;65284;51.040;13.722;2023-07-31T05:28:51;99469.56;;;15.67;90.73
76448;BME280;65284;51.040;13.722;2023-07-31T05:31:17;99465.44;;;15.64;90.82
76448;BME280;65284;51.040;13.722;2023-07-31T05:33:45;99468.19;;;15.71;90.63
76448;BME280;65284;51.040;13.722;2023-07-31T05:36:11;99467.13;;;15.72;90.32
76448;BME280;65284;51.040;13.722;2023-07-31T05:38:37;99449.44;;;15.71;88.86
76448;BME280;65284;51.040;13.722;2023-07-31T05:41:07;99463.84;;;15.70;88.85
76448;BME280;65284;51.040;13.722;2023-07-31T05:43:34;99460.53;;;15.81;89.74
76448;BME280;65284;51.040;13.722;2023-07-31T05:46:00;99447.16;;;15.81;88.80
76448;BME280;65284;51.040;13.722;2023-07-31T05:48:31;99453.13;;;15.83;89.39
76448;BME280;65284;51.040;13.722;2023-07-31T05:50:57;99453.75;;;15.85;88.65
76448;BME280;65284;51.040;13.722;2023-07-31T05:53:24;99456.19;;;15.93;88.69
76448;BME280;65284;51.040;13.722;2023-07-31T05:55:50;99454.75;;;15.98;88.98
76448;BME280;65284;51.040;13.722;2023-07-31T05:58:17;99454.75;;;15.98;88.59
76448;BME280;65284;51.040;13.722;2023-07-31T06:00:43;99455.97;;;16.02;88.47
76448;BME280;65284;51.040;13.722;2023-07-31T06:03:10;99451.03;;;15.99;88.16
76448;BME280;65284;51.040;13.722;2023-07-31T06:05:36;99439.50;;;15.98;88.42
76448;BME280;65284;51.040;13.722;2023-07-31T06:08:03;99443.63;;;16.01;87.87
76448;BME280;65284;51.040;13.722;2023-07-31T06:10:29;99446.72;;;15.98;87.56
76448;BME280;65284;51.040;13.722;2023-07-31T06:12:56;99451.00;;;16.05;87.89
76448;BME280;65284;51.040;13.722;2023-07-31T06:15:23;99446.66;;;16.11;87.66
76448;BME280;65284;51.040;13.722;2023-07-31T06:17:50;99448.69;;;16.22;87.15
76448;BME280;65284;51.040;13.722;2023-07-31T06:20:16;99451.81;;;16.12;86.74
76448;BME280;65284;51.040;13.722;2023-07-31T06:22:43;99454.66;;;16.24;86.27
76448;BME280;65284;51.040;13.722;2023-07-31T06:25:09;99459.19;;;16.30;86.16
76448;BME280;65284;51.040;13.722;2023-07-31T06:27:40;99451.16;;;16.30;85.67
76448;BME280;65284;51.040;13.722;2023-07-31T06:30:07;99456.28;;;16.32;85.36
76448;BME280;65284;51.040;13.722;2023-07-31T06:32:34;99445.13;;;16.42;85.12
76448;BME280;65284;51.040;13.722;2023-07-31T06:35:00;99455.22;;;16.40;85.07
76448;BME280;65284;51.040;13.722;2023-07-31T06:37:27;99452.31;;;16.41;84.91
76448;BME280;65284;51.040;13.722;2023-07-31T06:39:53;99449.00;;;16.46;85.28
76448;BME280;65284;51.040;13.722;2023-07-31T06:42:19;99447.53;;;16.50;85.44
76448;BME280;65284;51.040;13.722;2023-07-31T06:44:46;99444.47;;;16.46;85.32
76448;BME280;65284;51.040;13.722;2023-07-31T06:47:12;99435.63;;;16.46;85.59
76448;BME280;65284;51.040;13.722;2023-07-31T06:49:39;99440.53;;;16.49;85.26
76448;BME280;65284;51.040;13.722;2023-07-31T06:52:06;99445.88;;;16.55;84.76
76448;BME280;65284;51.040;13.722;2023-07-31T06:54:32;99444.19;;;16.61;84.74
76448;BME280;65284;51.040;13.722;2023-07-31T06:56:59;99443.16;;;16.62;84.85
76448;BME280;65284;51.040;13.722;2023-07-31T06:59:25;99444.56;;;16.71;84.33
76448;BME280;65284;51.040;13.722;2023-07-31T07:01:52;99447.88;;;16.67;83.81
76448;BME280;65284;51.040;13.722;2023-07-31T07:04:18;99454.88;;;16.74;83.10
76448;BME280;65284;51.040;13.722;2023-07-31T07:06:45;99452.81;;;16.76;84.58
76448;BME280;65284;51.040;13.722;2023-07-31T07:09:11;99451.13;;;16.75;83.17
76448;BME280;65284;51.040;13.722;2023-07-31T07:11:37;99437.94;;;16.80;83.34
76448;BME280;65284;51.040;13.722;2023-07-31T07:14:04;99447.75;;;16.93;82.39
76448;BME280;65284;51.040;13.722;2023-07-31T07:16:30;99451.69;;;16.91;82.51
76448;BME280;65284;51.040;13.722;2023-07-31T07:18:57;99459.50;;;16.99;81.77
76448;BME280;65284;51.040;13.722;2023-07-31T07:21:30;99455.31;;;17.03;81.34
76448;BME280;65284;51.040;13.722;2023-07-31T07:23:57;99455.50;;;17.08;81.52
76448;BME280;65284;51.040;13.722;2023-07-31T07:26:23;99457.31;;;17.14;81.44
76448;BME280;65284;51.040;13.722;2023-07-31T07:28:50;99448.84;;;17.17;80.25
76448;BME280;65284;51.040;13.722;2023-07-31T07:31:16;99456.63;;;17.25;79.64
76448;BME280;65284;51.040;13.722;2023-07-31T07:33:43;99449.19;;;17.27;79.94
76448;BME280;65284;51.040;13.722;2023-07-31T07:36:09;99453.69;;;17.34;79.20
76448;BME280;65284;51.040;13.722;2023-07-31T07:38:36;99440.13;;;17.47;79.61
76448;BME280;65284;51.040;13.722;2023-07-31T07:41:03;99447.75;;;17.50;78.92
76448;BME280;65284;51.040;13.722;2023-07-31T07:43:30;99445.00;;;17.57;78.18
76448;BME280;65284;51.040;13.722;2023-07-31T07:45:56;99449.41;;;17.51;78.79
76448;BME280;65284;51.040;13.722;2023-07-31T07:48:23;99441.94;;;17.53;78.42
76448;BME280;65284;51.040;13.722;2023-07-31T07:50:49;99444.63;;;17.53;78.55
76448;BME280;65284;51.040;13.722;2023-07-31T07:53:16;99453.59;;;17.65;77.39
76448;BME280;65284;51.040;13.722;2023-07-31T07:55:42;99448.66;;;17.62;77.50
76448;BME280;65284;51.040;13.722;2023-07-31T07:58:09;99452.16;;;17.63;77.10
76448;BME280;65284;51.040;13.722;2023-07-31T08:00:35;99452.56;;;17.66;77.51
76448;BME280;65284;51.040;13.722;2023-07-31T08:03:02;99451.31;;;17.69;76.68
76448;BME280;65284;51.040;13.722;2023-07-31T08:05:28;99454.56;;;17.78;76.65
76448;BME280;65284;51.040;13.722;2023-07-31T08:07:58;99451.38;;;17.87;74.99
76448;BME280;65284;51.040;13.722;2023-07-31T08:10:25;99452.19;;;17.88;75.57
76448;BME280;65284;51.040;13.722;2023-07-31T08:12:51;99450.41;;;18.00;75.93
76448;BME280;65284;51.040;13.722;2023-07-31T08:15:18;99463.31;;;18.10;75.43
76448;BME280;65284;51.040;13.722;2023-07-31T08:17:44;99465.94;;;18.16;75.13
76448;BME280;65284;51.040;13.722;2023-07-31T08:20:11;99466.06;;;18.22;73.97
76448;BME280;65284;51.040;13.722;2023-07-31T08:22:38;99465.63;;;18.25;74.07
76448;BME280;65284;51.040;13.722;2023-07-31T08:25:05;99472.06;;;18.24;74.36
76448;BME280;65284;51.040;13.722;2023-07-31T08:27:32;99476.81;;;18.22;74.04
76448;BME280;65284;51.040;13.722;2023-07-31T08:29:58;99466.84;;;18.29;73.28
76448;BME280;65284;51.040;13.722;2023-07-31T08:32:25;99477.59;;;18.29;73.55
76448;BME280;65284;51.040;13.722;2023-07-31T08:34:51;99466.16;;;18.33;73.20
76448;BME280;65284;51.040;13.722;2023-07-31T08:37:18;99458.94;;;18.34;73.57
76448;BME280;65284;51.040;13.722;2023-07-31T08:39:44;99477.97;;;18.32;72.79
76448;BME280;65284;51.040;13.722;2023-07-31T08:42:11;99465.06;;;18.23;73.39
76448;BME280;65284;51.040;13.722;2023-07-31T08:44:38;99464.00;;;18.24;73.19
76448;BME280;65284;51.040;13.722;2023-07-31T08:47:05;99460.25;;;18.25;72.95
76448;BME280;65284;51.040;13.722;2023-07-31T08:49:32;99461.47;;;18.29;72.52
76448;BME280;65284;51.040;13.722;2023-07-31T08:52:00;99455.63;;;18.32;72.47
76448;BME280;65284;51.040;13.722;2023-07-31T08:54:27;99459.81;;;18.28;72.56
76448;BME280;65284;51.040;13.722;2023-07-31T08:56:57;99463.63;;;18.20;73.37
76448;BME280;65284;51.040;13.722;2023-07-31T08:59:31;99461.91;;;18.26;71.94
76448;BME280;65284;51.040;13.722;2023-07-31T09:02:05;99458.00;;;18.22;72.66
76448;BME280;65284;51.040;13.722;2023-07-31T09:04:32;99449.94;;;18.22;72.65
76448;BME280;65284;51.040;13.722;2023-07-31T09:07:03;99454.81;;;18.31;72.13
76448;BME280;65284;51.040;13.722;2023-07-31T09:09:31;99456.63;;;18.19;72.55
76448;BME280;65284;51.040;13.722;2023-07-31T09:11:58;99459.69;;;18.23;72.71
76448;BME280;65284;51.040;13.722;2023-07-31T09:14:25;99460.69;;;18.22;72.41
76448;BME280;65284;51.040;13.722;2023-07-31T09:16:54;99454.50;;;18.21;72.34
76448;BME280;65284;51.040;13.722;2023-07-31T09:19:33;99453.69;;;18.21;72.25
76448;BME280;65284;51.040;13.722;2023-07-31T09:22:00;99463.53;;;18.27;72.07
76448;BME280;65284;51.040;13.722;2023-07-31T09:24:32;99456.53;;;18.26;71.82
76448;BME280;65284;51.040;13.722;2023-07-31T09:27:00;99455.31;;;18.22;72.02
76448;BME280;65284;51.040;13.722;2023-07-31T09:29:28;99445.78;;;18.26;71.78
76448;BME280;65284;51.040;13.722;2023-07-31T09:31:56;99442.81;;;18.34;71.66
76448;BME280;65284;51.040;13.722;2023-07-31T09:34:36;99439.34;;;18.27;71.88
76448;BME280;65284;51.040;13.722;2023-07-31T09:37:04;99440.16;;;18.27;71.54
76448;BME280;65284;51.040;13.722;2023-07-31T09:39:31;99439.59;;;18.25;71.46
76448;BME280;65284;51.040;13.722;2023-07-31T09:41:57;99439.16;;;18.28;72.22
76448;BME280;65284;51.040;13.722;2023-07-31T09:44:40;99436.81;;;18.32;70.35
76448;BME280;65284;51.040;13.722;2023-07-31T09:47:21;99431.44;;;18.32;70.93
76448;BME280;65284;51.040;13.722;2023-07-31T09:49:48;99427.84;;;18.38;71.03
76448;BME280;65284;51.040;13.722;2023-07-31T09:52:15;99432.63;;;18.36;71.55
76448;BME280;65284;51.040;13.722;2023-07-31T09:54:41;99429.47;;;18.39;70.67
76448;BME280;65284;51.040;13.722;2023-07-31T09:57:08;99427.03;;;18.37;70.74
76448;BME280;65284;51.040;13.722;2023-07-31T09:59:35;99437.25;;;18.47;70.79
76448;BME280;65284;51.040;13.722;2023-07-31T10:02:02;99426.69;;;18.46;70.33
76448;BME280;65284;51.040;13.722;2023-07-31T10:04:29;99433.88;;;18.52;70.76
76448;BME280;65284;51.040;13.722;2023-07-31T10:06:57;99428.56;;;18.45;70.03
76448;BME280;65284;51.040;13.722;2023-07-31T10:09:25;99412.63;;;18.62;69.42
76448;BME280;65284;51.040;13.722;2023-07-31T10:12:00;99419.44;;;18.64;69.77
76448;BME280;65284;51.040;13.722;2023-07-31T10:14:29;99423.47;;;18.74;70.21
76448;BME280;65284;51.040;13.722;2023-07-31T10:16:57;99420.56;;;18.75;69.89
76448;BME280;65284;51.040;13.722;2023-07-31T10:19:26;99411.50;;;18.70;69.98
76448;BME280;65284;51.040;13.722;2023-07-31T10:21:53;99411.00;;;18.91;68.62
76448;BME280;65284;51.040;13.722;2023-07-31T10:24:20;99396.78;;;19.02;69.13
76448;BME280;65284;51.040;13.722;2023-07-31T10:26:48;99400.75;;;19.00;68.84
76448;BME280;65284;51.040;13.722;2023-07-31T10:29:15;99391.38;;;19.02;69.60
76448;BME280;65284;51.040;13.722;2023-07-31T10:31:43;99397.47;;;19.09;68.99
76448;BME280;65284;51.040;13.722;2023-07-31T10:34:09;99396.88;;;19.07;68.99
76448;BME280;65284;51.040;13.722;2023-07-31T10:36:36;99395.59;;;19.10;68.83
76448;BME280;65284;51.040;13.722;2023-07-31T10:39:04;99391.97;;;19.16;68.50
76448;BME280;65284;51.040;13.722;2023-07-31T10:41:30;99395.06;;;19.31;68.39
76448;BME280;65284;51.040;13.722;2023-07-31T10:43:59;99398.56;;;19.20;68.59
76448;BME280;65284;51.040;13.722;2023-07-31T10:46:27;99382.28;;;19.27;67.64
76448;BME280;65284;51.040;13.722;2023-07-31T10:49:01;99376.78;;;19.33;68.27
76448;BME280;65284;51.040;13.722;2023-07-31T10:51:35;99376.44;;;19.53;67.11
76448;BME280;65284;51.040;13.722;2023-07-31T10:54:12;99373.41;;;19.38;66.87
76448;BME280;65284;51.040;13.722;2023-07-31T10:56:39;99375.03;;;19.39;67.12
76448;BME280;65284;51.040;13.722;2023-07-31T10:59:06;99373.38;;;19.62;66.91
76448;BME280;65284;51.040;13.722;2023-07-31T11:01:53;99371.28;;;19.40;67.58
76448;BME280;65284;51.040;13.722;2023-07-31T11:04:26;99376.78;;;19.45;67.75
76448;BME280;65284;51.040;13.722;2023-07-31T11:06:58;99374.56;;;19.42;67.13
76448;BME280;65284;51.040;13.722;2023-07-31T11:09:28;99369.63;;;19.51;66.70
76448;BME280;65284;51.040;13.722;2023-07-31T11:11:56;99372.19;;;19.58;66.79
76448;BME280;65284;51.040;13.722;2023-07-31T11:14:23;99364.50;;;19.49;67.19
76448;BME280;65284;51.040;13.722;2023-07-31T11:16:50;99383.91;;;19.51;66.66
76448;BME280;65284;51.040;13.722;2023-07-31T11:19:24;99357.69;;;19.59;66.30
76448;BME280;65284;51.040;13.722;2023-07-31T11:21:52;99355.56;;;19.61;66.78
76448;BME280;65284;51.040;13.722;2023-07-31T11:24:19;99357.69;;;19.59;67.45
76448;BME280;65284;51.040;13.722;2023-07-31T11:26:52;99354.28;;;19.63;67.66
76448;BME280;65284;51.040;13.722;2023-07-31T11:29:20;99354.88;;;19.53;68.93
76448;BME280;65284;51.040;13.722;2023-07-31T11:31:47;99361.91;;;19.54;68.36
76448;BME280;65284;51.040;13.722;2023-07-31T11:34:15;99352.06;;;19.60;68.43
76448;BME280;65284;51.040;13.722;2023-07-31T11:36:53;99356.63;;;19.60;69.02
76448;BME280;65284;51.040;13.722;2023-07-31T11:39:19;99360.16;;;19.72;68.91
76448;BME280;65284;51.040;13.722;2023-07-31T11:41:46;99337.44;;;19.80;68.72
76448;BME280;65284;51.040;13.722;2023-07-31T11:44:12;99343.44;;;20.10;67.58
76448;BME280;65284;51.040;13.722;2023-07-31T11:46:52;99344.06;;;20.00;67.99
76448;BME280;65284;51.040;13.722;2023-07-31T11:49:19;99337.22;;;20.10;68.22
76448;BME280;65284;51.040;13.722;2023-07-31T11:51:45;99339.56;;;20.35;67.18
76448;BME280;65284;51.040;13.722;2023-07-31T11:54:12;99334.88;;;20.42;66.97
76448;BME280;65284;51.040;13.722;2023-07-31T11:56:40;99342.13;;;20.53;66.97
76448;BME280;65284;51.040;13.722;2023-07-31T11:59:07;99328.25;;;20.50;66.04
76448;BME280;65284;51.040;13.722;2023-07-31T12:01:35;99331.81;;;20.67;66.18
76448;BME280;65284;51.040;13.722;2023-07-31T12:04:01;99328.50;;;20.77;65.33
76448;BME280;65284;51.040;13.722;2023-07-31T12:06:35;99318.53;;;20.77;65.27
76448;BME280;65284;51.040;13.722;2023-07-31T12:09:03;99322.69;;;20.85;64.89
76448;BME280;65284;51.040;13.722;2023-07-31T12:11:30;99318.00;;;21.14;64.15
76448;BME280;65284;51.040;13.722;2023-07-31T12:13:56;99321.38;;;21.21;64.04
76448;BME280;65284;51.040;13.722;2023-07-31T12:16:26;99316.31;;;21.08;62.38
76448;BME280;65284;51.040;13.722;2023-07-31T12:18:53;99314.31;;;21.20;62.35
76448;BME280;65284;51.040;13.722;2023-07-31T12:21:19;99312.94;;;21.18;62.65
76448;BME280;65284;51.040;13.722;2023-07-31T12:23:46;99297.31;;;21.20;62.99
76448;BME280;65284;51.040;13.722;2023-07-31T12:26:13;99299.81;;;21.26;62.96
76448;BME280;65284;51.040;13.722;2023-07-31T12:28:42;99303.38;;;21.27;62.70
76448;BME280;65284;51.040;13.722;2023-07-31T12:31:11;99298.44;;;21.41;62.18
76448;BME280;65284;51.040;13.722;2023-07-31T12:33:39;99295.81;;;21.46;61.28
76448;BME280;65284;51.040;13.722;2023-07-31T12:36:08;99275.81;;;21.47;60.56
76448;BME280;65284;51.040;13.722;2023-07-31T12:38:36;99286.38;;;21.70;59.94
76448;BME280;65284;51.040;13.722;2023-07-31T12:41:02;99279.97;;;21.76;59.91
76448;BME280;65284;51.040;13.722;2023-07-31T12:43:29;99260.25;;;21.76;60.47
76448;BME280;65284;51.040;13.722;2023-07-31T12:45:55;99267.03;;;21.78;58.54
76448;BME280;65284;51.040;13.722;2023-07-31T12:48:25;99268.16;;;21.83;56.98
76448;BME280;65284;51.040;13.722;2023-07-31T12:50:51;99262.72;;;21.77;58.77
76448;BME280;65284;51.040;13.722;2023-07-31T12:53:18;99256.31;;;21.89;57.92
76448;BME280;65284;51.040;13.722;2023-07-31T12:55:44;99244.41;;;21.85;57.88